Time;durP1;ratioP1;P1;durP2;ratioP2;P2;SDS_P1;SDS_P2;PMS_P1;PMS_P2;Temp;Humidity;BMP_temperature;BMP_pressure;BME280_temperature;BME280_humidity;BME280_pressure;Samples;Min_cycle;Max_cycle;Signal;HPM_P1;HPM_P2
2021/08/08 00:01:22;;;;;;;3.23;1.53;;;14.70;99.90;;;;;;5048051;28;20464;-72
2021/08/08 00:03:49;;;;;;;1.80;1.53;;;14.70;99.90;;;;;;5047212;28;20490;-73
2021/08/08 00:06:16;;;;;;;1.97;1.77;;;14.70;99.90;;;;;;5047991;28;20475;-73
2021/08/08 00:08:43;;;;;;;2.07;1.50;;;14.60;99.90;;;;;;5047180;28;20459;-73
2021/08/08 00:11:09;;;;;;;2.23;1.50;;;14.60;99.90;;;;;;5048348;28;20549;-73
2021/08/08 00:13:37;;;;;;;2.93;1.40;;;14.60;99.90;;;;;;5047742;28;20474;-73
2021/08/08 00:16:05;;;;;;;4.00;1.73;;;14.60;99.90;;;;;;5047981;28;20515;-73
2021/08/08 00:18:32;;;;;;;2.17;1.30;;;14.60;99.90;;;;;;5047473;28;20839;-73
2021/08/08 00:20:58;;;;;;;1.80;1.60;;;14.50;99.90;;;;;;5047763;28;20459;-73
2021/08/08 00:23:25;;;;;;;1.70;1.60;;;14.50;99.90;;;;;;5047546;28;21031;-73
2021/08/08 00:25:52;;;;;;;1.53;1.43;;;14.50;99.90;;;;;;5047440;28;20483;-73
2021/08/08 00:28:18;;;;;;;2.00;1.53;;;14.50;99.90;;;;;;5047848;28;20478;-73
2021/08/08 00:30:46;;;;;;;7.40;1.60;;;14.50;99.90;;;;;;5047885;28;20468;-74
2021/08/08 00:33:13;;;;;;;5.17;1.47;;;14.40;99.90;;;;;;5047945;28;20463;-74
2021/08/08 00:35:42;;;;;;;2.13;1.93;;;14.40;99.90;;;;;;5048537;28;20487;-73
2021/08/08 00:38:09;;;;;;;2.33;2.00;;;14.50;99.90;;;;;;5047524;28;20824;-73
2021/08/08 00:40:36;;;;;;;5.13;1.70;;;14.40;99.90;;;;;;5047456;28;20467;-73
2021/08/08 00:43:03;;;;;;;9.00;1.83;;;14.50;99.90;;;;;;5047985;28;20475;-73
2021/08/08 00:45:29;;;;;;;2.73;1.37;;;14.50;99.90;;;;;;5047908;28;20483;-73
2021/08/08 00:47:57;;;;;;;3.00;1.90;;;14.50;99.90;;;;;;5047068;28;20502;-73
2021/08/08 00:50:24;;;;;;;2.53;1.50;;;14.50;99.90;;;;;;5047395;28;20460;-73
2021/08/08 00:52:51;;;;;;;1.60;1.50;;;14.40;99.90;;;;;;5046910;28;20470;-73
2021/08/08 00:55:19;;;;;;;3.70;1.63;;;14.40;99.90;;;;;;5047887;28;20499;-73
2021/08/08 00:57:45;;;;;;;2.53;1.67;;;14.40;99.90;;;;;;5046650;28;20467;-73
2021/08/08 01:00:13;;;;;;;1.90;1.67;;;14.40;99.90;;;;;;5047535;28;20843;-73
2021/08/08 01:02:47;;;;;;;3.53;1.63;;;14.40;99.90;;;;;;5046996;28;20463;-73
2021/08/08 01:05:22;;;;;;;2.03;1.60;;;14.40;99.90;;;;;;5046834;28;20529;-73
2021/08/08 01:07:52;;;;;;;2.47;1.50;;;14.40;99.90;;;;;;5048214;28;20823;-73
2021/08/08 01:10:19;;;;;;;1.97;1.60;;;14.40;99.90;;;;;;5050182;28;20459;-75
2021/08/08 01:12:47;;;;;;;2.10;1.40;;;14.30;99.90;;;;;;5047572;28;20824;-75
2021/08/08 01:15:14;;;;;;;4.03;1.80;;;14.30;99.90;;;;;;5121854;22;20569;-66
2021/08/08 01:17:43;;;;;;;1.90;1.70;;;14.30;99.90;;;;;;5047422;28;21008;-66
2021/08/08 01:20:13;;;;;;;1.90;1.60;;;14.30;99.90;;;;;;5048485;28;20455;-66
2021/08/08 01:22:44;;;;;;;1.83;1.63;;;14.30;99.90;;;;;;5048335;28;20505;-66
2021/08/08 01:25:14;;;;;;;3.53;1.50;;;14.30;99.90;;;;;;5048688;28;20483;-66
2021/08/08 01:27:41;;;;;;;3.50;1.60;;;14.30;99.90;;;;;;5048164;28;20460;-66
2021/08/08 01:30:09;;;;;;;1.40;1.30;;;14.20;99.90;;;;;;5052170;28;20459;-66
2021/08/08 01:32:36;;;;;;;2.80;1.50;;;14.20;99.90;;;;;;5051922;28;20466;-65
2021/08/08 01:35:05;;;;;;;2.13;1.60;;;14.30;99.90;;;;;;5052200;28;20476;-65
2021/08/08 01:37:32;;;;;;;2.13;1.40;;;14.20;99.90;;;;;;5051618;28;20486;-65
2021/08/08 01:40:03;;;;;;;2.70;1.43;;;14.20;99.90;;;;;;5051926;28;20463;-66
2021/08/08 01:42:32;;;;;;;1.97;1.57;;;14.20;99.90;;;;;;5052339;28;20474;-65
2021/08/08 01:45:01;;;;;;;3.07;2.00;;;14.20;99.90;;;;;;5048294;28;20484;-65
2021/08/08 01:47:32;;;;;;;1.50;1.40;;;14.20;99.90;;;;;;5051386;28;20467;-66
2021/08/08 01:50:00;;;;;;;2.10;1.40;;;14.30;99.90;;;;;;5051677;28;20886;-65
2021/08/08 01:52:27;;;;;;;4.60;1.60;;;14.30;99.90;;;;;;5051951;28;20463;-66
2021/08/08 01:54:54;;;;;;;1.67;1.57;;;14.30;99.90;;;;;;5051753;28;20988;-66
2021/08/08 01:57:21;;;;;;;4.00;1.60;;;14.30;99.90;;;;;;5051145;28;20460;-65
2021/08/08 01:59:49;;;;;;;1.70;1.40;;;14.30;99.90;;;;;;5052107;28;20470;-66
2021/08/08 02:02:17;;;;;;;3.53;1.50;;;14.20;99.90;;;;;;5051979;28;20471;-66
2021/08/08 02:04:45;;;;;;;1.70;1.33;;;14.30;99.90;;;;;;5051905;28;20844;-65
2021/08/08 02:07:15;;;;;;;2.53;1.70;;;14.30;99.90;;;;;;5051928;28;20459;-66
2021/08/08 02:09:42;;;;;;;1.60;1.30;;;14.20;99.90;;;;;;5051642;28;20464;-65
2021/08/08 02:12:09;;;;;;;2.20;1.43;;;14.20;99.90;;;;;;5052309;28;20494;-66
2021/08/08 02:14:37;;;;;;;2.70;1.43;;;14.20;99.90;;;;;;5051693;28;20464;-66
2021/08/08 02:17:06;;;;;;;1.60;1.33;;;14.10;99.90;;;;;;5051864;28;20474;-66
2021/08/08 02:19:33;;;;;;;2.03;1.20;;;14.10;99.90;;;;;;5051027;28;20459;-66
2021/08/08 02:22:01;;;;;;;1.73;1.53;;;14.10;99.90;;;;;;5052031;28;20463;-66
2021/08/08 02:24:29;;;;;;;3.80;1.53;;;14.10;99.90;;;;;;5051764;28;20488;-66
2021/08/08 02:26:56;;;;;;;1.83;1.40;;;14.00;99.90;;;;;;5051898;28;20926;-66
2021/08/08 02:29:23;;;;;;;1.37;1.27;;;14.00;99.90;;;;;;5051288;28;20867;-66
2021/08/08 02:31:49;;;;;;;2.43;1.50;;;14.00;99.90;;;;;;5051194;28;20474;-66
2021/08/08 02:34:17;;;;;;;2.80;1.70;;;14.00;99.90;;;;;;5051637;28;20466;-66
2021/08/08 02:36:44;;;;;;;2.03;1.57;;;14.00;99.90;;;;;;5051468;28;20502;-65
2021/08/08 02:39:11;;;;;;;2.77;1.43;;;14.00;99.90;;;;;;5050538;28;20467;-65
2021/08/08 02:41:38;;;;;;;1.97;1.13;;;14.00;99.90;;;;;;5051380;28;20463;-65
2021/08/08 02:44:05;;;;;;;1.77;1.60;;;14.00;99.90;;;;;;5051389;28;20479;-66
2021/08/08 02:46:32;;;;;;;2.77;1.53;;;14.00;99.90;;;;;;5051058;28;20476;-65
2021/08/08 02:48:59;;;;;;;2.40;1.67;;;14.00;99.90;;;;;;5050964;28;20834;-66
2021/08/08 02:51:27;;;;;;;2.57;1.60;;;14.00;99.90;;;;;;5051082;28;20470;-66
2021/08/08 02:53:54;;;;;;;2.20;1.47;;;14.00;99.90;;;;;;5051170;28;20467;-66
2021/08/08 02:56:20;;;;;;;2.57;1.60;;;14.00;99.90;;;;;;5051085;28;20537;-65
2021/08/08 02:58:47;;;;;;;2.20;1.57;;;13.90;99.90;;;;;;5050443;28;20832;-65
2021/08/08 03:01:14;;;;;;;3.37;1.40;;;13.90;99.90;;;;;;5051020;28;20459;-66
2021/08/08 03:03:41;;;;;;;2.43;1.80;;;13.90;99.90;;;;;;5050345;28;20475;-66
2021/08/08 03:06:11;;;;;;;4.50;1.80;;;13.90;99.90;;;;;;5050647;28;20494;-65
2021/08/08 03:08:42;;;;;;;4.33;1.50;;;13.90;99.90;;;;;;5049706;28;20466;-66
2021/08/08 03:11:09;;;;;;;1.73;1.60;;;13.90;99.90;;;;;;5050712;28;20541;-65
2021/08/08 03:13:36;;;;;;;1.80;1.63;;;13.90;99.90;;;;;;5049915;28;20455;-66
2021/08/08 03:16:03;;;;;;;3.87;2.07;;;13.90;99.90;;;;;;5050454;28;20487;-66
2021/08/08 03:18:30;;;;;;;2.87;2.23;;;13.90;99.90;;;;;;5049712;28;20885;-65
2021/08/08 03:20:56;;;;;;;3.83;1.70;;;13.80;99.90;;;;;;5050331;28;20460;-66
2021/08/08 03:23:23;;;;;;;4.13;1.90;;;13.80;99.90;;;;;;5050221;28;20463;-66
2021/08/08 03:25:51;;;;;;;3.07;1.70;;;13.80;99.90;;;;;;5049962;28;21037;-66
2021/08/08 03:28:18;;;;;;;3.37;1.50;;;13.80;99.90;;;;;;5049812;28;20466;-65
2021/08/08 03:30:45;;;;;;;2.07;1.30;;;13.80;99.90;;;;;;5049905;28;21127;-66
2021/08/08 03:33:11;;;;;;;2.63;1.60;;;13.90;99.90;;;;;;5049915;28;20965;-66
2021/08/08 03:35:38;;;;;;;2.87;1.97;;;13.80;99.90;;;;;;5049780;28;20525;-65
2021/08/08 03:38:07;;;;;;;2.07;1.80;;;13.80;99.90;;;;;;5049608;28;20459;-65
2021/08/08 03:40:34;;;;;;;1.43;1.33;;;13.80;99.90;;;;;;5049846;28;20582;-65
2021/08/08 03:43:02;;;;;;;2.30;1.40;;;13.70;99.90;;;;;;5049895;28;20464;-65
2021/08/08 03:45:28;;;;;;;4.33;2.10;;;13.70;99.90;;;;;;5049424;28;20495;-66
2021/08/08 03:47:55;;;;;;;2.80;1.67;;;13.70;99.90;;;;;;5049595;28;20459;-66
2021/08/08 03:50:22;;;;;;;3.67;1.87;;;13.70;99.90;;;;;;5049134;28;20464;-66
2021/08/08 03:52:48;;;;;;;3.37;1.57;;;13.70;99.90;;;;;;5049539;28;20996;-66
2021/08/08 03:55:15;;;;;;;1.90;1.63;;;13.70;99.90;;;;;;5049767;28;20486;-66
2021/08/08 03:57:42;;;;;;;2.00;1.70;;;13.70;99.90;;;;;;5048949;28;20466;-66
2021/08/08 04:00:11;;;;;;;1.60;1.50;;;13.70;99.90;;;;;;5049710;28;20869;-66
2021/08/08 04:02:38;;;;;;;3.23;2.30;;;13.70;99.90;;;;;;5049214;28;20464;-66
2021/08/08 04:05:05;;;;;;;2.47;1.67;;;13.70;99.90;;;;;;5049507;28;20559;-66
2021/08/08 04:07:32;;;;;;;2.90;1.60;;;13.60;99.90;;;;;;5048852;28;20469;-65
2021/08/08 04:09:59;;;;;;;2.37;1.40;;;13.60;99.90;;;;;;5049532;28;20463;-66
2021/08/08 04:12:25;;;;;;;3.13;1.53;;;13.60;99.90;;;;;;5049469;28;20455;-66
2021/08/08 04:14:52;;;;;;;4.90;1.67;;;13.60;99.90;;;;;;5049115;28;20466;-66
2021/08/08 04:17:20;;;;;;;4.23;1.60;;;13.60;99.90;;;;;;5048999;28;20959;-66
2021/08/08 04:19:47;;;;;;;2.80;1.57;;;13.60;99.90;;;;;;5049066;28;20643;-66
2021/08/08 04:22:13;;;;;;;3.60;2.00;;;13.60;99.90;;;;;;5049358;28;20474;-66
2021/08/08 04:24:40;;;;;;;2.17;1.67;;;13.50;99.90;;;;;;5049155;28;20847;-65
2021/08/08 04:27:07;;;;;;;3.43;1.60;;;13.50;99.90;;;;;;5049103;28;20490;-66
2021/08/08 04:29:33;;;;;;;5.03;1.50;;;13.50;99.90;;;;;;5048424;28;20875;-66
2021/08/08 04:32:01;;;;;;;2.73;1.70;;;13.50;99.90;;;;;;5049030;28;20459;-65
2021/08/08 04:34:31;;;;;;;2.87;1.57;;;13.50;99.90;;;;;;5048676;28;20462;-66
2021/08/08 04:36:58;;;;;;;1.97;1.30;;;13.50;99.90;;;;;;5048841;28;20479;-66
2021/08/08 04:39:25;;;;;;;3.60;1.60;;;13.50;99.90;;;;;;5048711;28;20467;-66
2021/08/08 04:41:52;;;;;;;1.93;1.50;;;13.50;99.90;;;;;;5048930;28;20456;-66
2021/08/08 04:44:19;;;;;;;2.33;1.40;;;13.50;99.90;;;;;;5048640;28;20542;-66
2021/08/08 04:46:45;;;;;;;3.50;1.63;;;13.50;99.90;;;;;;5048883;28;20490;-66
2021/08/08 04:49:12;;;;;;;5.00;1.77;;;13.50;99.90;;;;;;5048534;28;20870;-66
2021/08/08 04:51:41;;;;;;;4.90;1.50;;;13.60;99.90;;;;;;5048848;28;20478;-66
2021/08/08 04:54:08;;;;;;;2.40;1.60;;;13.50;99.90;;;;;;5049183;28;20460;-66
2021/08/08 04:56:35;;;;;;;2.50;1.50;;;13.60;99.90;;;;;;5048579;28;20522;-66
2021/08/08 04:59:01;;;;;;;2.60;1.80;;;13.60;99.90;;;;;;5048301;28;20470;-65
2021/08/08 05:01:29;;;;;;;2.83;1.30;;;13.60;99.90;;;;;;5048836;28;20481;-66
2021/08/08 05:03:56;;;;;;;2.30;1.57;;;13.60;99.90;;;;;;5052595;28;20524;-66
2021/08/08 05:06:23;;;;;;;2.40;1.70;;;13.60;99.90;;;;;;5052874;28;20483;-66
2021/08/08 05:08:51;;;;;;;5.70;1.50;;;13.70;99.90;;;;;;5052033;28;20471;-66
2021/08/08 05:11:18;;;;;;;2.70;1.53;;;13.70;99.90;;;;;;5052873;28;20884;-66
2021/08/08 05:13:45;;;;;;;2.67;1.30;;;13.70;99.90;;;;;;5035946;28;20471;-66
2021/08/08 05:16:11;;;;;;;4.20;1.40;;;13.70;99.90;;;;;;5032834;28;20476;-66
2021/08/08 05:18:38;;;;;;;2.80;1.70;;;13.70;99.90;;;;;;5032136;28;20466;-66
2021/08/08 05:21:05;;;;;;;2.30;1.27;;;13.80;99.90;;;;;;5032596;28;20472;-66
2021/08/08 05:23:31;;;;;;;4.57;1.60;;;13.80;99.90;;;;;;5053858;28;20458;-66
2021/08/08 05:25:59;;;;;;;3.20;1.63;;;13.80;99.90;;;;;;5059076;28;20483;-66
2021/08/08 05:28:26;;;;;;;2.40;1.43;;;13.80;99.90;;;;;;5060947;28;20972;-66
2021/08/08 05:30:53;;;;;;;6.23;1.40;;;13.90;99.90;;;;;;5062700;28;20454;-66
2021/08/08 05:33:20;;;;;;;7.87;2.43;;;13.90;99.90;;;;;;5061491;28;20461;-66
2021/08/08 05:35:48;;;;;;;1.53;1.40;;;13.90;99.90;;;;;;5071864;28;20501;-66
2021/08/08 05:38:15;;;;;;;2.13;1.47;;;14.00;99.90;;;;;;5055387;28;20467;-66
2021/08/08 05:40:41;;;;;;;1.33;1.17;;;14.00;99.90;;;;;;5047186;28;20486;-66
2021/08/08 05:43:09;;;;;;;1.83;1.40;;;14.00;99.90;;;;;;5045494;28;20472;-66
2021/08/08 05:45:36;;;;;;;4.30;1.40;;;14.10;99.90;;;;;;5044596;28;20532;-66
2021/08/08 05:48:03;;;;;;;5.00;1.80;;;14.10;99.90;;;;;;5034302;28;20963;-66
2021/08/08 05:50:30;;;;;;;2.57;1.20;;;14.10;99.90;;;;;;5040858;28;20462;-66
2021/08/08 05:52:56;;;;;;;2.60;1.33;;;14.20;99.90;;;;;;5048841;28;20463;-66
2021/08/08 05:55:23;;;;;;;2.00;1.50;;;14.30;99.90;;;;;;5045943;28;20524;-66
2021/08/08 05:57:50;;;;;;;1.50;1.20;;;14.20;99.90;;;;;;5043109;28;20462;-66
2021/08/08 06:00:18;;;;;;;3.60;1.40;;;14.30;99.90;;;;;;5051681;28;20459;-66
2021/08/08 06:02:46;;;;;;;5.03;1.43;;;14.40;99.90;;;;;;5051691;28;20466;-66
2021/08/08 06:05:12;;;;;;;4.03;1.20;;;14.40;99.90;;;;;;5051742;28;20487;-66
2021/08/08 06:07:39;;;;;;;1.67;1.43;;;14.40;99.90;;;;;;5050907;28;20460;-66
2021/08/08 06:10:07;;;;;;;2.33;1.33;;;14.40;99.90;;;;;;5051688;28;20467;-66
2021/08/08 06:12:33;;;;;;;2.53;1.10;;;14.50;99.90;;;;;;5051158;28;20463;-66
2021/08/08 06:15:00;;;;;;;3.37;1.90;;;14.50;99.90;;;;;;5050792;28;20467;-66
2021/08/08 06:17:31;;;;;;;2.23;1.13;;;14.60;99.90;;;;;;5050946;28;20455;-66
2021/08/08 06:19:57;;;;;;;1.60;1.20;;;14.70;99.90;;;;;;5051653;28;20539;-66
2021/08/08 06:22:24;;;;;;;1.67;1.37;;;14.80;99.90;;;;;;5051511;28;20866;-66
2021/08/08 06:24:51;;;;;;;1.30;1.20;;;14.90;99.90;;;;;;5050830;28;20491;-66
2021/08/08 06:27:20;;;;;;;3.77;1.83;;;15.00;99.90;;;;;;5051050;28;20470;-66
2021/08/08 06:29:47;;;;;;;2.03;1.57;;;15.10;99.90;;;;;;5051070;28;20463;-67
2021/08/08 06:32:13;;;;;;;1.93;1.27;;;15.20;99.90;;;;;;5051419;28;20834;-67
2021/08/08 06:34:42;;;;;;;2.40;1.23;;;15.30;99.90;;;;;;5051076;28;20467;-66
2021/08/08 06:37:09;;;;;;;2.20;1.30;;;15.30;99.90;;;;;;5050681;28;20456;-67
2021/08/08 06:39:36;;;;;;;1.70;1.40;;;15.30;99.90;;;;;;5049774;28;20460;-66
2021/08/08 06:42:03;;;;;;;2.73;1.60;;;15.40;99.90;;;;;;5048986;28;20875;-66
2021/08/08 06:44:29;;;;;;;2.60;1.17;;;15.40;99.90;;;;;;5050007;28;20950;-67
2021/08/08 06:46:56;;;;;;;1.50;1.10;;;15.40;99.90;;;;;;5050650;28;21237;-67
2021/08/08 06:49:23;;;;;;;3.23;1.77;;;15.50;99.90;;;;;;5050620;28;20467;-66
2021/08/08 06:51:53;;;;;;;2.03;1.40;;;15.50;99.90;;;;;;5050350;28;20459;-66
2021/08/08 06:54:20;;;;;;;1.00;0.90;;;15.50;99.90;;;;;;5047122;28;20932;-66
2021/08/08 06:56:47;;;;;;;2.30;1.30;;;15.60;99.90;;;;;;5050319;28;20489;-67
2021/08/08 06:59:13;;;;;;;4.43;1.43;;;15.60;99.90;;;;;;5049867;28;20462;-66
2021/08/08 07:01:40;;;;;;;3.53;1.40;;;15.70;99.90;;;;;;5050294;28;20459;-67
2021/08/08 07:04:07;;;;;;;4.53;1.60;;;15.80;99.90;;;;;;5050745;28;20846;-67
2021/08/08 07:06:34;;;;;;;3.17;1.50;;;15.80;99.90;;;;;;5049985;28;20500;-67
2021/08/08 07:09:02;;;;;;;2.17;1.43;;;15.80;99.90;;;;;;5050041;28;20467;-66
2021/08/08 07:11:30;;;;;;;6.10;1.47;;;15.80;99.90;;;;;;5049995;28;20467;-66
2021/08/08 07:13:57;;;;;;;3.77;1.57;;;15.90;99.90;;;;;;5050267;28;20558;-67
2021/08/08 07:16:23;;;;;;;1.40;1.20;;;16.00;99.90;;;;;;5046810;28;20486;-66
2021/08/08 07:18:50;;;;;;;4.43;1.70;;;16.00;99.90;;;;;;5035505;28;20471;-66
2021/08/08 07:21:17;;;;;;;1.27;1.17;;;16.10;99.90;;;;;;5046609;28;20479;-66
2021/08/08 07:23:44;;;;;;;4.00;1.70;;;16.20;99.90;;;;;;5047854;28;20475;-66
2021/08/08 07:26:14;;;;;;;2.13;1.20;;;16.30;99.90;;;;;;5046508;28;20494;-66
2021/08/08 07:28:41;;;;;;;3.20;1.57;;;16.30;99.90;;;;;;5047169;28;20969;-66
2021/08/08 07:31:08;;;;;;;2.20;1.50;;;16.40;99.90;;;;;;5047995;28;20463;-66
2021/08/08 07:33:35;;;;;;;4.47;1.60;;;16.50;99.90;;;;;;5047443;28;20464;-66
2021/08/08 07:36:02;;;;;;;2.13;1.40;;;16.60;99.90;;;;;;5047805;28;20479;-66
2021/08/08 07:38:29;;;;;;;4.53;1.60;;;16.70;99.90;;;;;;5046812;28;20474;-66
2021/08/08 07:40:56;;;;;;;1.93;1.40;;;16.80;99.90;;;;;;5047080;28;20551;-66
2021/08/08 07:43:24;;;;;;;3.00;1.50;;;16.80;99.90;;;;;;5047775;28;20474;-66
2021/08/08 07:45:51;;;;;;;2.23;1.60;;;16.80;99.90;;;;;;5046715;28;20487;-66
2021/08/08 07:48:18;;;;;;;2.53;1.47;;;16.80;99.90;;;;;;5046804;28;20478;-66
2021/08/08 07:50:44;;;;;;;1.40;1.20;;;16.90;99.90;;;;;;5047102;28;20459;-67
2021/08/08 07:53:11;;;;;;;2.93;1.33;;;17.00;99.90;;;;;;5047250;28;20464;-68
2021/08/08 07:55:38;;;;;;;2.27;1.70;;;17.10;99.90;;;;;;5046540;28;20502;-67
2021/08/08 07:58:04;;;;;;;3.87;1.67;;;17.20;99.90;;;;;;5046368;28;20455;-68
2021/08/08 08:00:32;;;;;;;1.77;1.67;;;17.30;99.90;;;;;;5041690;28;20471;-67
2021/08/08 08:02:59;;;;;;;1.90;1.30;;;17.40;99.90;;;;;;5045882;28;20483;-68
2021/08/08 08:05:26;;;;;;;3.80;1.47;;;17.50;99.90;;;;;;5045628;28;20487;-67
2021/08/08 08:07:53;;;;;;;1.73;1.20;;;17.50;99.90;;;;;;5046206;28;20509;-68
2021/08/08 08:10:20;;;;;;;3.40;1.60;;;17.50;99.90;;;;;;5046116;28;20469;-67
2021/08/08 08:12:46;;;;;;;1.60;1.50;;;17.50;99.90;;;;;;5046273;28;20927;-68
2021/08/08 08:15:13;;;;;;;2.50;1.60;;;17.60;99.90;;;;;;5046589;28;20487;-68
2021/08/08 08:17:43;;;;;;;1.50;1.30;;;17.60;99.90;;;;;;5045882;28;20482;-68
2021/08/08 08:20:11;;;;;;;1.67;1.33;;;17.70;99.90;;;;;;5043684;28;20460;-68
2021/08/08 08:22:38;;;;;;;1.20;1.10;;;17.80;99.90;;;;;;5046410;28;20464;-67
2021/08/08 08:25:06;;;;;;;1.90;1.20;;;17.80;99.90;;;;;;5199916;22;20496;-72
2021/08/08 08:27:33;;;;;;;1.80;1.40;;;17.80;99.90;;;;;;5019542;28;20490;-72
2021/08/08 08:30:00;;;;;;;2.90;1.40;;;17.70;99.90;;;;;;5022712;28;20471;-73
2021/08/08 08:32:26;;;;;;;2.80;1.43;;;17.70;99.90;;;;;;5031499;28;20603;-71
2021/08/08 08:34:55;;;;;;;1.50;1.40;;;17.60;99.90;;;;;;5017664;28;20556;-72
2021/08/08 08:37:21;;;;;;;2.03;1.30;;;17.50;99.90;;;;;;5010316;28;21246;-72
2021/08/08 08:39:48;;;;;;;8.10;1.70;;;17.50;99.90;;;;;;5021836;28;20522;-73
2021/08/08 08:42:16;;;;;;;2.17;1.40;;;17.50;99.90;;;;;;5031139;28;20479;-72
2021/08/08 08:44:43;;;;;;;2.40;1.60;;;17.60;99.90;;;;;;5030899;28;20959;-72
2021/08/08 08:47:15;;;;;;;2.10;1.40;;;17.60;99.90;;;;;;5023597;28;21131;-72
2021/08/08 08:49:46;;;;;;;1.70;1.60;;;17.50;99.90;;;;;;5028688;28;20469;-72
2021/08/08 08:52:19;;;;;;;2.07;1.30;;;17.50;99.90;;;;;;5029675;28;20518;-71
2021/08/08 08:54:45;;;;;;;1.50;1.40;;;17.40;99.90;;;;;;5028551;28;20468;-72
2021/08/08 08:57:12;;;;;;;3.10;1.30;;;17.30;99.90;;;;;;5020206;28;20460;-72
2021/08/08 08:59:39;;;;;;;3.57;1.57;;;17.30;99.90;;;;;;5029529;28;20472;-72
2021/08/08 09:02:06;;;;;;;3.30;1.90;;;17.30;99.90;;;;;;5029891;28;20466;-73
2021/08/08 09:04:33;;;;;;;2.03;1.60;;;17.20;99.90;;;;;;5027559;28;20464;-72
2021/08/08 09:07:00;;;;;;;2.70;1.40;;;17.30;99.90;;;;;;5027802;28;20492;-72
2021/08/08 09:09:28;;;;;;;1.30;1.20;;;17.30;99.90;;;;;;5023653;28;20460;-72
2021/08/08 09:11:55;;;;;;;3.47;1.57;;;17.30;99.90;;;;;;5026098;28;20476;-73
2021/08/08 09:14:23;;;;;;;2.83;1.60;;;17.40;99.90;;;;;;5027022;28;20476;-72
2021/08/08 09:16:51;;;;;;;2.27;1.60;;;17.50;99.90;;;;;;5026561;28;21148;-71
2021/08/08 09:19:19;;;;;;;1.40;1.30;;;17.60;99.90;;;;;;5026230;28;20467;-72
2021/08/08 09:21:46;;;;;;;2.37;1.50;;;17.80;99.90;;;;;;5026455;28;20464;-72
2021/08/08 09:24:23;;;;;;;2.50;1.30;;;18.00;99.90;;;;;;5027110;28;20814;-72
2021/08/08 09:27:00;;;;;;;3.47;1.53;;;18.30;99.90;;;;;;5026519;28;20526;-72
2021/08/08 09:29:27;;;;;;;2.40;1.63;;;18.50;99.90;;;;;;5017341;28;20464;-72
2021/08/08 09:31:54;;;;;;;2.20;1.40;;;18.70;99.90;;;;;;5025828;28;20460;-73
2021/08/08 09:34:25;;;;;;;1.77;1.40;;;18.80;99.90;;;;;;5024405;28;20824;-72
2021/08/08 09:36:53;;;;;;;3.10;1.30;;;18.90;99.90;;;;;;5022866;28;20489;-73
2021/08/08 09:39:28;;;;;;;3.40;1.73;;;19.00;99.90;;;;;;5025722;28;20468;-71
2021/08/08 09:42:06;;;;;;;2.93;2.07;;;19.10;99.90;;;;;;5025630;28;20466;-73
2021/08/08 09:44:33;;;;;;;2.00;1.43;;;19.20;99.90;;;;;;5025735;28;20463;-73
2021/08/08 09:47:00;;;;;;;1.30;1.20;;;19.30;99.90;;;;;;5026820;28;20496;-72
2021/08/08 09:49:27;;;;;;;2.43;1.40;;;19.40;99.90;;;;;;5029927;28;20464;-72
2021/08/08 09:51:54;;;;;;;1.80;1.50;;;19.50;99.90;;;;;;5031919;28;20468;-72
2021/08/08 09:54:22;;;;;;;2.90;1.30;;;19.60;99.90;;;;;;5028778;28;20839;-73
2021/08/08 09:56:58;;;;;;;2.70;1.40;;;19.70;99.90;;;;;;5028346;28;20570;-73
2021/08/08 09:59:27;;;;;;;1.80;1.50;;;19.70;99.90;;;;;;5031730;28;21293;-73
2021/08/08 10:01:54;;;;;;;3.67;1.47;;;19.60;99.90;;;;;;5031781;28;20474;-72
2021/08/08 10:04:21;;;;;;;3.13;1.57;;;19.60;99.90;;;;;;5021721;28;20465;-72
2021/08/08 10:06:48;;;;;;;1.77;1.23;;;19.70;99.90;;;;;;5031774;28;20502;-73
2021/08/08 10:09:18;;;;;;;2.40;1.57;;;19.70;99.90;;;;;;5030540;28;20575;-73
2021/08/08 10:11:50;;;;;;;1.83;1.50;;;19.70;99.90;;;;;;5029845;28;20468;-71
2021/08/08 10:14:17;;;;;;;2.90;1.40;;;19.60;99.90;;;;;;5023345;28;20465;-73
2021/08/08 10:16:47;;;;;;;5.30;1.50;;;19.60;99.90;;;;;;5009052;28;20515;-72
2021/08/08 10:19:17;;;;;;;2.43;1.40;;;19.70;99.90;;;;;;5008733;28;20472;-72
2021/08/08 10:21:47;;;;;;;2.37;1.30;;;19.80;99.90;;;;;;5009061;28;21020;-72
2021/08/08 10:24:17;;;;;;;1.60;1.30;;;19.80;99.90;;;;;;5008948;28;20457;-72
2021/08/08 10:26:44;;;;;;;2.10;1.40;;;19.80;99.90;;;;;;5008974;28;20497;-72
2021/08/08 10:29:12;;;;;;;1.57;1.20;;;20.00;99.90;;;;;;5009758;28;20849;-72
2021/08/08 10:31:39;;;;;;;1.93;1.43;;;20.20;99.90;;;;;;5009311;28;20469;-72
2021/08/08 10:34:07;;;;;;;4.87;2.20;;;20.50;99.90;;;;;;5009116;28;20950;-71
2021/08/08 10:36:36;;;;;;;6.07;2.60;;;20.60;99.90;;;;;;5008446;28;20513;-72
2021/08/08 10:39:11;;;;;;;2.10;1.80;;;20.60;99.90;;;;;;5008951;28;20504;-72
2021/08/08 10:41:39;;;;;;;3.30;1.83;;;20.50;99.90;;;;;;5008867;28;20464;-73
2021/08/08 10:44:08;;;;;;;2.37;1.53;;;20.40;99.90;;;;;;5008856;28;20469;-72
2021/08/08 10:46:46;;;;;;;2.00;1.50;;;20.20;99.90;;;;;;5008685;28;20532;-72
2021/08/08 10:49:26;;;;;;;3.00;1.40;;;20.20;99.90;;;;;;5008144;28;20568;-72
2021/08/08 10:51:58;;;;;;;2.30;1.50;;;20.10;99.90;;;;;;5009341;28;21228;-71
2021/08/08 10:54:25;;;;;;;2.10;1.43;;;20.10;99.90;;;;;;5017253;28;20515;-72
2021/08/08 10:56:52;;;;;;;2.17;1.63;;;20.20;99.90;;;;;;5020887;28;20484;-71
2021/08/08 10:59:20;;;;;;;1.60;1.50;;;20.40;99.90;;;;;;5027133;28;20476;-71
2021/08/08 11:01:48;;;;;;;2.73;1.70;;;20.50;99.90;;;;;;5029613;28;20464;-71
2021/08/08 11:04:17;;;;;;;2.43;1.90;;;20.70;99.90;;;;;;5027262;28;20478;-71
2021/08/08 11:06:45;;;;;;;2.10;1.87;;;21.00;99.90;;;;;;5029602;28;20500;-72
2021/08/08 11:09:13;;;;;;;2.43;1.40;;;21.20;99.90;;;;;;5028996;28;20456;-73
2021/08/08 11:11:40;;;;;;;1.83;1.17;;;21.30;99.90;;;;;;5029718;28;20471;-72
2021/08/08 11:14:13;;;;;;;1.70;1.30;;;21.40;99.90;;;;;;5030160;28;20467;-71
2021/08/08 11:16:42;;;;;;;2.10;1.40;;;21.50;99.90;;;;;;5029659;28;20477;-72
2021/08/08 11:19:09;;;;;;;4.07;1.23;;;21.60;99.90;;;;;;5028603;28;20460;-73
2021/08/08 11:21:38;;;;;;;1.83;1.37;;;21.50;99.90;;;;;;5027358;28;20466;-71
2021/08/08 11:24:08;;;;;;;2.57;1.47;;;21.30;99.90;;;;;;5021731;28;20461;-73
2021/08/08 11:26:35;;;;;;;2.20;1.30;;;21.20;99.90;;;;;;5008150;28;20489;-73
2021/08/08 11:29:06;;;;;;;1.60;1.40;;;21.20;99.90;;;;;;5007816;28;20478;-73
2021/08/08 11:31:35;;;;;;;2.30;1.40;;;21.40;99.90;;;;;;5007971;28;20473;-73
2021/08/08 11:34:04;;;;;;;2.27;1.23;;;21.40;99.90;;;;;;5008889;28;20465;-72
2021/08/08 11:36:33;;;;;;;1.93;1.33;;;21.50;99.90;;;;;;5008448;28;20563;-73
2021/08/08 11:39:03;;;;;;;2.50;1.43;;;21.60;99.90;;;;;;5008018;28;20463;-73
2021/08/08 11:41:30;;;;;;;3.10;1.50;;;21.80;99.90;;;;;;5007546;28;20461;-73
2021/08/08 11:44:09;;;;;;;2.10;1.33;;;22.00;99.90;;;;;;5027281;28;20468;-73
2021/08/08 11:46:37;;;;;;;2.90;2.00;;;22.00;99.90;;;;;;5027265;28;20524;-73
2021/08/08 11:49:17;;;;;;;2.50;1.50;;;22.00;99.90;;;;;;5026054;28;20468;-73
2021/08/08 11:51:54;;;;;;;2.50;1.40;;;22.10;99.90;;;;;;5025783;28;20463;-71
2021/08/08 11:54:25;;;;;;;1.93;1.60;;;22.10;99.90;;;;;;5027779;28;20470;-72
2021/08/08 11:56:52;;;;;;;1.40;1.30;;;22.00;99.90;;;;;;5029285;28;20544;-72
2021/08/08 11:59:25;;;;;;;2.43;1.30;;;22.00;99.90;;;;;;5020897;28;20488;-72
2021/08/08 12:01:57;;;;;;;2.57;1.50;;;21.90;99.90;;;;;;5007731;28;20531;-72
2021/08/08 12:04:25;;;;;;;2.83;1.50;;;21.80;99.90;;;;;;5004622;28;20469;-73
2021/08/08 12:06:53;;;;;;;2.37;1.60;;;21.70;99.90;;;;;;5006609;28;20501;-71
2021/08/08 12:09:22;;;;;;;1.60;1.37;;;21.50;99.90;;;;;;5025158;28;20495;-72
2021/08/08 12:11:51;;;;;;;2.80;1.80;;;21.10;99.90;;;;;;5025920;28;20459;-72
2021/08/08 12:14:30;;;;;;;1.83;1.20;;;21.00;99.90;;;;;;5027581;28;20475;-72
2021/08/08 12:17:02;;;;;;;1.87;1.67;;;21.10;99.90;;;;;;5024212;28;20972;-71
2021/08/08 12:19:30;;;;;;;1.80;1.20;;;21.20;99.90;;;;;;5026615;28;20819;-73
2021/08/08 12:22:03;;;;;;;2.20;1.30;;;21.40;99.90;;;;;;5025206;28;20983;-72
2021/08/08 12:24:37;;;;;;;5.00;1.30;;;21.40;99.90;;;;;;5026380;28;20456;-72
2021/08/08 12:27:06;;;;;;;1.60;1.40;;;21.60;99.90;;;;;;5025997;28;20494;-71
2021/08/08 12:29:35;;;;;;;1.60;1.00;;;21.90;99.90;;;;;;5026104;28;20506;-72
2021/08/08 12:32:08;;;;;;;2.10;1.20;;;21.90;99.90;;;;;;5026632;28;20464;-72
2021/08/08 12:34:36;;;;;;;1.80;1.23;;;22.00;99.90;;;;;;5029059;28;20525;-71
2021/08/08 12:37:06;;;;;;;1.97;1.20;;;22.00;99.90;;;;;;5030781;28;20559;-72
2021/08/08 12:39:35;;;;;;;2.80;1.73;;;22.10;99.90;;;;;;5026199;28;20757;-72
2021/08/08 12:42:03;;;;;;;1.40;1.30;;;22.00;99.90;;;;;;5026510;28;20460;-73
2021/08/08 12:44:35;;;;;;;1.70;1.20;;;22.00;99.90;;;;;;5026417;28;20479;-73
2021/08/08 12:47:03;;;;;;;2.00;1.50;;;22.00;99.90;;;;;;5025734;28;20485;-73
2021/08/08 12:49:35;;;;;;;1.50;1.10;;;21.90;99.90;;;;;;5025906;28;20471;-72
2021/08/08 12:52:04;;;;;;;2.73;1.73;;;22.00;99.90;;;;;;5026739;28;20534;-72